createdAt,value
2017-06-05T00:00:19.423Z,12.29
2017-06-05T00:01:20.683Z,12.26
2017-06-05T00:02:21.896Z,12.31
2017-06-05T00:03:23.152Z,12.27
2017-06-05T00:04:24.375Z,12.16
2017-06-05T00:05:25.692Z,12.27
2017-06-05T00:06:26.961Z,12.13
2017-06-05T00:07:28.220Z,12.16
2017-06-05T00:08:29.469Z,12.11
2017-06-05T00:09:30.712Z,12.2
2017-06-05T00:10:31.993Z,12.16
2017-06-05T00:11:33.218Z,12.16
2017-06-05T00:12:34.454Z,12.15
2017-06-05T00:13:35.746Z,12.13
2017-06-05T00:14:36.997Z,12.19
2017-06-05T00:15:38.219Z,12.19
2017-06-05T00:16:39.528Z,12.16
2017-06-05T00:17:40.746Z,12.11
2017-06-05T00:18:41.980Z,12.26
2017-06-05T00:19:43.356Z,12.33
2017-06-05T00:20:44.569Z,12.3
2017-06-05T00:21:45.803Z,12.39
2017-06-05T00:22:47.072Z,12.29
2017-06-05T00:23:48.302Z,12.33
2017-06-05T00:24:49.564Z,12.29
2017-06-05T00:25:50.808Z,12.33
2017-06-05T00:26:52.126Z,12.24
2017-06-05T00:27:53.379Z,12.37
2017-06-05T00:28:54.618Z,12.29
2017-06-05T00:29:55.855Z,12.39
2017-06-05T00:30:57.115Z,12.39
2017-06-05T00:31:58.390Z,12.38
2017-06-05T00:32:59.716Z,12.39
2017-06-05T00:34:00.973Z,12.41
2017-06-05T00:35:02.217Z,12.39
2017-06-05T00:36:03.480Z,12.41
2017-06-05T00:37:04.742Z,12.48
2017-06-05T00:38:06.066Z,12.51
2017-06-05T00:39:07.391Z,12.44
2017-06-05T00:40:08.669Z,12.38
2017-06-05T00:41:09.896Z,12.39
2017-06-05T00:42:11.141Z,12.38
2017-06-05T00:43:12.386Z,12.39
2017-06-05T00:44:13.674Z,12.44
2017-06-05T00:45:14.937Z,12.45
2017-06-05T00:46:16.174Z,12.46
2017-06-05T00:47:17.400Z,12.38
2017-06-05T00:48:18.652Z,12.37
2017-06-05T00:49:19.969Z,12.38
2017-06-05T00:50:21.355Z,12.46
2017-06-05T00:51:22.584Z,12.41
2017-06-05T00:52:23.872Z,12.44
2017-06-05T00:53:25.089Z,12.41
2017-06-05T00:54:26.340Z,12.42
2017-06-05T00:55:27.596Z,12.31
2017-06-05T00:56:28.857Z,12.27
2017-06-05T00:57:30.120Z,12.26
2017-06-05T00:58:31.364Z,12.27
2017-06-05T00:59:32.646Z,12.23
2017-06-05T01:00:33.882Z,12.16
2017-06-05T01:01:35.149Z,12.15
2017-06-05T01:02:36.407Z,12.15
2017-06-05T01:03:37.673Z,12.15
2017-06-05T01:04:38.913Z,12.08
2017-06-05T01:05:40.152Z,11.97
2017-06-05T01:06:41.424Z,11.94
2017-06-05T01:07:42.674Z,11.85
2017-06-05T01:08:43.914Z,11.77
2017-06-05T01:09:45.277Z,11.8
2017-06-05T01:10:46.430Z,11.68
2017-06-05T01:11:47.661Z,11.75
2017-06-05T01:12:48.876Z,11.75
2017-06-05T01:13:50.135Z,11.72
2017-06-05T01:14:51.404Z,11.67
2017-06-05T01:15:52.619Z,11.65
2017-06-05T01:16:53.882Z,11.61
2017-06-05T01:17:55.273Z,11.59
2017-06-05T01:18:56.516Z,11.44
2017-06-05T01:19:57.749Z,11.41
2017-06-05T01:20:59.029Z,11.46
2017-06-05T01:22:00.279Z,11.44
2017-06-05T01:23:01.538Z,11.46
2017-06-05T01:24:02.907Z,11.38
2017-06-05T01:25:04.148Z,11.38
2017-06-05T01:26:05.392Z,11.35
2017-06-05T01:27:06.624Z,11.32
2017-06-05T01:28:07.871Z,11.39
2017-06-05T01:29:09.146Z,11.43
2017-06-05T01:30:10.395Z,11.34
2017-06-05T01:31:11.654Z,11.27
2017-06-05T01:32:12.895Z,11.28
2017-06-05T01:33:14.125Z,11.34
2017-06-05T01:34:15.382Z,11.35
2017-06-05T01:35:16.653Z,11.34
2017-06-05T01:36:18.028Z,11.25
2017-06-05T01:37:19.275Z,11.25
2017-06-05T01:38:20.543Z,11.2
2017-06-05T01:39:21.992Z,11.24
2017-06-05T01:40:23.275Z,11.25
2017-06-05T01:41:24.504Z,11.24
2017-06-05T01:42:25.834Z,11.2
2017-06-05T01:43:27.102Z,11.19
2017-06-05T01:44:28.335Z,11.27
2017-06-05T01:45:29.580Z,11.25
2017-06-05T01:46:30.833Z,11.2
2017-06-05T01:47:32.177Z,11.2
2017-06-05T01:48:33.409Z,11.13
2017-06-05T01:49:34.645Z,11.19
2017-06-05T01:50:35.886Z,11.25
2017-06-05T01:51:37.125Z,11.25
2017-06-05T01:52:38.365Z,11.24
2017-06-05T01:53:39.610Z,11.25
2017-06-05T01:54:40.967Z,11.21
2017-06-05T01:55:42.094Z,11.28
2017-06-05T01:56:43.331Z,11.27
2017-06-05T01:57:44.593Z,11.19
2017-06-05T01:58:45.840Z,11.1
2017-06-05T01:59:47.065Z,11.17
2017-06-05T02:00:48.302Z,11.06
2017-06-05T02:01:49.609Z,11.11
2017-06-05T02:02:50.850Z,11.11
2017-06-05T02:03:52.079Z,11.03
2017-06-05T02:04:53.368Z,11.02
2017-06-05T02:05:54.575Z,11.02
2017-06-05T02:06:55.836Z,10.99
2017-06-05T02:07:57.133Z,10.99
2017-06-05T02:08:58.359Z,10.99
2017-06-05T02:09:59.635Z,10.96
2017-06-05T02:11:00.873Z,10.95
2017-06-05T02:12:02.123Z,10.89
2017-06-05T02:13:03.377Z,10.89
2017-06-05T02:14:04.640Z,10.84
2017-06-05T02:15:05.914Z,10.84
2017-06-05T02:16:07.146Z,10.77
2017-06-05T02:17:08.395Z,10.74
2017-06-05T02:18:09.690Z,10.63
2017-06-05T02:19:10.926Z,10.7
2017-06-05T02:20:12.174Z,10.65
2017-06-05T02:21:13.443Z,10.59
2017-06-05T02:22:14.672Z,10.6
2017-06-05T02:23:15.913Z,10.55
2017-06-05T02:24:17.198Z,10.66
2017-06-05T02:25:18.449Z,10.63
2017-06-05T02:26:19.711Z,10.63
2017-06-05T02:27:21.002Z,10.63
2017-06-05T02:28:22.235Z,10.56
2017-06-05T02:29:23.563Z,10.55
2017-06-05T02:30:24.837Z,10.55
2017-06-05T02:31:26.077Z,10.42
2017-06-05T02:32:27.425Z,10.4
2017-06-05T02:33:28.676Z,10.51
2017-06-05T02:34:29.940Z,10.37
2017-06-05T02:35:31.177Z,10.52
2017-06-05T02:36:32.411Z,10.42
2017-06-05T02:37:33.757Z,10.4
2017-06-05T02:38:35.140Z,10.42
2017-06-05T02:39:36.355Z,10.3
2017-06-05T02:40:37.587Z,10.3
2017-06-05T02:41:38.839Z,10.3
2017-06-05T02:42:40.092Z,10.19
2017-06-05T02:43:41.366Z,10.21
2017-06-05T02:44:42.604Z,10.15
2017-06-05T02:45:43.863Z,10.19
2017-06-05T02:46:45.087Z,10.18
2017-06-05T02:47:46.325Z,10.22
2017-06-05T02:48:47.579Z,10.25
2017-06-05T02:49:48.818Z,10.37
2017-06-05T02:50:50.052Z,10.37
2017-06-05T02:51:51.324Z,10.39
2017-06-05T02:52:52.638Z,10.36
2017-06-05T02:53:53.853Z,10.36
2017-06-05T02:54:55.090Z,10.42
2017-06-05T02:55:56.329Z,10.39
2017-06-05T02:56:57.570Z,10.37
2017-06-05T02:57:58.846Z,10.37
2017-06-05T02:59:00.118Z,10.37
2017-06-05T03:00:01.356Z,10.42
2017-06-05T03:01:02.594Z,10.42
2017-06-05T03:02:03.831Z,10.42
2017-06-05T03:03:05.065Z,10.42
2017-06-05T03:04:06.322Z,10.36
2017-06-05T03:05:07.612Z,10.46
2017-06-05T03:06:08.852Z,10.42
2017-06-05T03:07:10.088Z,10.39
2017-06-05T03:08:11.329Z,10.47
2017-06-05T03:09:12.570Z,10.53
2017-06-05T03:10:13.838Z,10.71
2017-06-05T03:11:15.238Z,10.65
2017-06-05T03:12:16.478Z,10.73
2017-06-05T03:13:17.808Z,10.74
2017-06-05T03:14:19.047Z,10.71
2017-06-05T03:15:20.505Z,10.77
2017-06-05T03:16:21.839Z,10.78
2017-06-05T03:17:23.136Z,10.86
2017-06-05T03:18:24.360Z,10.76
2017-06-05T03:19:25.653Z,10.74
2017-06-05T03:20:26.880Z,10.76
2017-06-05T03:21:28.115Z,10.77
2017-06-05T03:22:29.404Z,10.63
2017-06-05T03:23:30.764Z,10.71
2017-06-05T03:24:31.886Z,10.66
2017-06-05T03:25:33.139Z,10.71
2017-06-05T03:26:34.385Z,10.71
2017-06-05T03:27:35.686Z,10.7
2017-06-05T03:28:36.932Z,10.74
2017-06-05T03:29:38.153Z,10.78
2017-06-05T03:30:39.414Z,10.86
2017-06-05T03:31:40.629Z,10.84
2017-06-05T03:32:41.896Z,10.89
2017-06-05T03:33:43.196Z,10.91
2017-06-05T03:34:44.503Z,10.94
2017-06-05T03:35:45.750Z,10.95
2017-06-05T03:36:47.029Z,10.98
2017-06-05T03:37:48.250Z,11.02
2017-06-05T03:38:49.503Z,10.96
2017-06-05T03:39:50.740Z,11.02
2017-06-05T03:40:51.983Z,11.01
2017-06-05T03:41:53.267Z,11.01
2017-06-05T03:42:54.529Z,11.06
2017-06-05T03:43:55.774Z,11.21
2017-06-05T03:44:57.043Z,11.19
2017-06-05T03:45:58.372Z,11.24
2017-06-05T03:46:59.605Z,11.25
2017-06-05T03:48:00.834Z,11.24
2017-06-05T03:49:02.073Z,11.28
2017-06-05T03:50:03.327Z,11.29
2017-06-05T03:51:04.571Z,11.34
2017-06-05T03:52:05.823Z,11.32
2017-06-05T03:53:07.173Z,11.41
2017-06-05T03:54:08.493Z,11.34
2017-06-05T03:55:09.751Z,11.53
2017-06-05T03:56:10.979Z,11.43
2017-06-05T03:57:12.212Z,11.53
2017-06-05T03:58:13.514Z,11.54
2017-06-05T03:59:14.753Z,11.53
2017-06-05T04:00:16.052Z,11.52
2017-06-05T04:01:17.293Z,11.53
2017-06-05T04:02:18.555Z,11.65
2017-06-05T04:03:19.791Z,11.71
2017-06-05T04:04:21.142Z,11.72
2017-06-05T04:05:22.377Z,11.68
2017-06-05T04:06:23.632Z,11.77
2017-06-05T04:07:24.877Z,11.87
2017-06-05T04:08:26.103Z,11.93
2017-06-05T04:09:27.348Z,12.01
2017-06-05T04:10:28.604Z,12.01
2017-06-05T04:11:29.930Z,12.04
2017-06-05T04:12:31.199Z,12.19
2017-06-05T04:13:32.429Z,12.24
2017-06-05T04:14:33.667Z,12.29
2017-06-05T04:15:34.907Z,12.26
2017-06-05T04:16:36.156Z,12.39
2017-06-05T04:17:37.470Z,12.44
2017-06-05T04:18:38.754Z,12.49
2017-06-05T04:19:40.002Z,12.54
2017-06-05T04:20:41.265Z,12.71
2017-06-05T04:21:42.470Z,12.74
2017-06-05T04:22:43.722Z,12.69
2017-06-05T04:23:44.970Z,12.74
2017-06-05T04:24:46.221Z,12.87
2017-06-05T04:25:47.474Z,12.96
2017-06-05T04:26:48.699Z,12.95
2017-06-05T04:27:49.946Z,13.02
2017-06-05T04:28:51.215Z,13.12
2017-06-05T04:29:52.476Z,13.21
2017-06-05T04:30:53.716Z,13.33
2017-06-05T04:31:54.971Z,13.4
2017-06-05T04:32:56.211Z,13.41
2017-06-05T04:33:57.491Z,13.49
2017-06-05T04:34:58.711Z,13.59
2017-06-05T04:35:59.998Z,13.77
2017-06-05T04:37:01.254Z,13.65
2017-06-05T04:38:02.617Z,13.77
2017-06-05T04:39:03.927Z,13.87
2017-06-05T04:40:05.175Z,13.91
2017-06-05T04:41:06.443Z,14.02
2017-06-05T04:42:07.717Z,14.02
2017-06-05T04:43:08.974Z,14.06
2017-06-05T04:44:10.205Z,14.13
2017-06-05T04:45:11.466Z,14.06
2017-06-05T04:46:12.793Z,14.14
2017-06-05T04:47:13.992Z,14.19
2017-06-05T04:48:15.239Z,14.2
2017-06-05T04:49:16.471Z,14.29
2017-06-05T04:50:17.720Z,14.43
2017-06-05T04:51:18.978Z,14.47
2017-06-05T04:52:20.331Z,14.57
2017-06-05T04:53:21.573Z,14.64
2017-06-05T04:54:22.817Z,14.68
2017-06-05T04:55:24.070Z,14.84
2017-06-05T04:56:25.315Z,14.81
2017-06-05T04:57:26.579Z,14.95
2017-06-05T04:58:27.823Z,14.99
2017-06-05T04:59:29.078Z,15.09
2017-06-05T05:00:30.300Z,15.01
2017-06-05T05:01:31.612Z,15.02
2017-06-05T05:02:32.859Z,15.06
2017-06-05T05:03:34.129Z,15.19
2017-06-05T05:04:35.389Z,15.43
2017-06-05T05:05:36.636Z,15.51
2017-06-05T05:06:37.883Z,15.66
2017-06-05T05:07:39.132Z,15.7
2017-06-05T05:08:40.409Z,15.86
2017-06-05T05:09:41.675Z,15.85
2017-06-05T05:10:42.944Z,15.97
2017-06-05T05:11:44.180Z,15.99
2017-06-05T05:12:45.417Z,16.14
2017-06-05T05:13:46.671Z,16.09
2017-06-05T05:14:47.972Z,16.23
2017-06-05T05:15:49.304Z,16.34
2017-06-05T05:16:50.542Z,16.5
2017-06-05T05:17:51.831Z,16.52
2017-06-05T05:18:53.081Z,16.53
2017-06-05T05:19:54.321Z,16.59
2017-06-05T05:20:55.581Z,16.59
2017-06-05T05:21:56.812Z,16.74
2017-06-05T05:22:58.063Z,16.83
2017-06-05T05:23:59.315Z,16.9
2017-06-05T05:25:00.568Z,17.03
2017-06-05T05:26:01.856Z,17.17
2017-06-05T05:27:03.088Z,17.2
2017-06-05T05:28:04.408Z,17.26
2017-06-05T05:29:05.626Z,17.38
2017-06-05T05:30:06.965Z,17.41
2017-06-05T05:31:08.192Z,17.43
2017-06-05T05:32:09.441Z,17.5
2017-06-05T05:33:10.680Z,17.51
2017-06-05T05:34:11.938Z,17.59
2017-06-05T05:35:13.412Z,17.67
2017-06-05T05:36:14.783Z,17.62
2017-06-05T05:37:15.916Z,17.7
2017-06-05T05:38:17.159Z,17.79
2017-06-05T05:39:18.403Z,17.89
2017-06-05T05:40:19.665Z,17.92
2017-06-05T05:41:20.906Z,17.97
2017-06-05T05:42:22.155Z,18.17
2017-06-05T05:43:23.392Z,18.28
2017-06-05T05:44:24.649Z,18.36
2017-06-05T05:45:25.898Z,18.57
2017-06-05T05:46:27.239Z,18.67
2017-06-05T05:47:28.484Z,18.77
2017-06-05T05:48:29.733Z,18.95
2017-06-05T05:49:30.981Z,18.98
2017-06-05T05:50:32.290Z,18.94
2017-06-05T05:51:33.541Z,19.08
2017-06-05T05:52:34.784Z,19.28
2017-06-05T05:53:36.034Z,19.4
2017-06-05T05:54:37.277Z,19.58
2017-06-05T05:55:38.527Z,19.86
2017-06-05T05:56:39.798Z,20.15
2017-06-05T05:57:41.020Z,20.34
2017-06-05T05:58:42.266Z,20.61
2017-06-05T05:59:43.537Z,20.59
2017-06-05T06:00:44.806Z,20.9
2017-06-05T06:01:46.079Z,21.23
2017-06-05T06:02:47.302Z,21.45
2017-06-05T06:03:48.541Z,21.76
2017-06-05T06:04:49.882Z,21.97
2017-06-05T06:05:51.129Z,22.16
2017-06-05T06:06:52.430Z,22.35
2017-06-05T06:07:53.669Z,22.32
2017-06-05T06:08:54.930Z,22.35
2017-06-05T06:09:56.166Z,22.46
2017-06-05T06:10:57.570Z,22.44
2017-06-05T06:11:58.931Z,22.49
2017-06-05T06:13:00.330Z,22.71
2017-06-05T06:14:01.525Z,22.78
2017-06-05T06:15:02.776Z,22.8
2017-06-05T06:16:04.035Z,22.97
2017-06-05T06:17:05.365Z,23.32
2017-06-05T06:18:06.660Z,23.43
2017-06-05T06:19:08.040Z,23.62
2017-06-05T06:20:09.287Z,23.71
2017-06-05T06:21:10.524Z,24.01
2017-06-05T06:22:11.801Z,24.27
2017-06-05T06:23:13.088Z,24.17
2017-06-05T06:24:14.451Z,24.53
2017-06-05T06:25:15.712Z,24.42
2017-06-05T06:26:16.957Z,24.54
2017-06-05T06:27:18.200Z,24.69
2017-06-05T06:28:19.531Z,25.05
2017-06-05T06:29:20.773Z,25.07
2017-06-05T06:30:22.127Z,25.07
2017-06-05T06:31:23.376Z,25.27
2017-06-05T06:32:24.629Z,25.25
2017-06-05T06:33:25.884Z,25.44
2017-06-05T06:34:27.146Z,25.52
2017-06-05T06:35:28.483Z,25.44
2017-06-05T06:36:29.757Z,25.91
2017-06-05T06:37:30.982Z,26.44
2017-06-05T06:38:32.235Z,27.16
2017-06-05T06:39:33.521Z,27.7
2017-06-05T06:40:34.803Z,28.07
2017-06-05T06:41:36.085Z,28.54
2017-06-05T06:42:37.309Z,28.81
2017-06-05T06:43:38.556Z,29.13
2017-06-05T06:44:39.832Z,29.47
2017-06-05T06:45:41.080Z,29.38
2017-06-05T06:46:42.447Z,29.33
2017-06-05T06:47:43.782Z,29.45
2017-06-05T06:48:45.186Z,29.79
2017-06-05T06:49:46.467Z,29.94
2017-06-05T06:50:47.817Z,30.24
2017-06-05T06:51:49.034Z,30.16
2017-06-05T06:52:50.294Z,30.34
2017-06-05T06:53:51.604Z,30.36
2017-06-05T06:54:52.913Z,30.47
2017-06-05T06:55:54.161Z,30.43
2017-06-05T06:56:55.473Z,30.75
2017-06-05T06:57:56.709Z,30.94
2017-06-05T06:58:57.982Z,31.09
2017-06-05T06:59:59.283Z,31.04
2017-06-05T07:01:00.576Z,31.18
2017-06-05T07:02:01.826Z,31.39
2017-06-05T07:03:03.052Z,31.21
2017-06-05T07:04:04.363Z,31.15
2017-06-05T07:05:05.617Z,30.94
2017-06-05T07:06:06.902Z,30.8
2017-06-05T07:07:08.122Z,30.86
2017-06-05T07:08:09.451Z,30.71
2017-06-05T07:09:10.676Z,30.72
2017-06-05T07:10:11.989Z,30.4
2017-06-05T07:11:13.208Z,30.29
2017-06-05T07:12:14.506Z,30.62
2017-06-05T07:13:15.846Z,30.61
2017-06-05T07:14:17.124Z,30.59
2017-06-05T07:15:18.390Z,30.8
2017-06-05T07:16:19.761Z,30.76
2017-06-05T07:17:20.963Z,30.84
2017-06-05T07:18:22.213Z,30.33
2017-06-05T07:19:23.475Z,29.79
2017-06-05T07:20:24.713Z,29.94
2017-06-05T07:21:25.980Z,30.15
2017-06-05T07:22:27.322Z,30.47
2017-06-05T07:23:28.542Z,30.45
2017-06-05T07:24:29.884Z,30.47
2017-06-05T07:25:31.159Z,30.37
2017-06-05T07:26:32.419Z,30.27
2017-06-05T07:27:33.675Z,30.31
2017-06-05T07:28:34.932Z,30.57
2017-06-05T07:29:36.213Z,30.69
2017-06-05T07:30:37.468Z,30.91
2017-06-05T07:31:38.740Z,30.98
2017-06-05T07:32:39.978Z,30.9
2017-06-05T07:33:41.219Z,31.17
2017-06-05T07:34:42.486Z,31.46
2017-06-05T07:35:43.756Z,31.11
2017-06-05T07:36:45.066Z,30.67
2017-06-05T07:37:46.336Z,30.76
2017-06-05T07:38:47.585Z,30.56
2017-06-05T07:39:48.856Z,30.74
2017-06-05T07:40:50.152Z,30.86
2017-06-05T07:41:51.437Z,31.11
2017-06-05T07:42:52.706Z,31.46
2017-06-05T07:43:53.939Z,31.57
2017-06-05T07:44:55.188Z,31.96
2017-06-05T07:45:56.476Z,32.39
2017-06-05T07:46:57.894Z,32.25
2017-06-05T07:47:59.173Z,32.51
2017-06-05T07:49:00.418Z,32.44
2017-06-05T07:50:01.675Z,32.59
2017-06-05T07:51:02.925Z,32.79
2017-06-05T07:52:04.191Z,33.15
2017-06-05T07:53:05.633Z,33.11
2017-06-05T07:54:07.294Z,32.54
2017-06-05T07:55:08.450Z,32.86
2017-06-05T07:56:09.728Z,32.93
2017-06-05T07:57:11.070Z,32.66
2017-06-05T07:58:12.281Z,32.99
2017-06-05T07:59:13.501Z,33.03
2017-06-05T08:00:14.779Z,32.84
2017-06-05T08:01:16.019Z,32.8
2017-06-05T08:02:17.305Z,32.88
2017-06-05T08:03:18.558Z,32.96
2017-06-05T08:04:19.898Z,32.66
2017-06-05T08:05:21.123Z,32.58
2017-06-05T08:06:22.359Z,32.79
2017-06-05T08:07:23.613Z,32.95
2017-06-05T08:08:24.869Z,33.29
2017-06-05T08:09:26.195Z,33.57
2017-06-05T08:10:27.482Z,33.85
2017-06-05T08:11:28.781Z,34.04
2017-06-05T08:12:30.012Z,34.22
2017-06-05T08:13:31.263Z,34.39
2017-06-05T08:14:32.523Z,34.31
2017-06-05T08:15:33.767Z,34.51
2017-06-05T08:16:35.085Z,34.95
2017-06-05T08:17:36.338Z,35.25
2017-06-05T08:18:37.592Z,35.81
2017-06-05T08:19:38.829Z,36.23
2017-06-05T08:20:40.078Z,36.9
2017-06-05T08:21:41.475Z,37.21
2017-06-05T08:22:42.705Z,37.46
2017-06-05T08:23:43.982Z,37.64
2017-06-05T08:24:45.221Z,38.27
2017-06-05T08:25:46.482Z,38.24
2017-06-05T08:26:47.735Z,37.7
2017-06-05T08:27:49.007Z,37.47
2017-06-05T08:28:50.292Z,37.56
2017-06-05T08:29:51.543Z,37.46
2017-06-05T08:30:52.808Z,37.41
2017-06-05T08:31:54.099Z,37.17
2017-06-05T08:32:55.344Z,36.95
2017-06-05T08:33:56.605Z,36.99
2017-06-05T08:34:57.891Z,37.04
2017-06-05T08:35:59.129Z,37.01
2017-06-05T08:37:00.426Z,37.66
2017-06-05T08:38:01.679Z,37.77
2017-06-05T08:39:02.932Z,37.9
2017-06-05T08:40:04.217Z,38.44
2017-06-05T08:41:05.603Z,38.7
2017-06-05T08:42:06.766Z,38.82
2017-06-05T08:43:08.015Z,38.52
2017-06-05T08:44:09.277Z,37.78
2017-06-05T08:45:10.542Z,37.59
2017-06-05T08:46:11.794Z,37.41
2017-06-05T08:47:13.068Z,37.58
2017-06-05T08:48:14.294Z,37.2
2017-06-05T08:49:15.563Z,35.99
2017-06-05T08:50:16.830Z,35.86
2017-06-05T08:51:18.097Z,35.14
2017-06-05T08:52:19.454Z,34.98
2017-06-05T08:53:20.815Z,34.88
2017-06-05T08:54:22.092Z,35.17
2017-06-05T08:55:23.361Z,35.13
2017-06-05T08:56:24.586Z,35.4
2017-06-05T08:57:25.843Z,35.89
2017-06-05T08:58:27.110Z,36.07
2017-06-05T08:59:28.371Z,35.93
2017-06-05T09:00:29.620Z,35.89
2017-06-05T09:01:30.998Z,35.91
2017-06-05T09:02:32.166Z,35.07
2017-06-05T09:03:33.403Z,33.92
2017-06-05T09:04:34.665Z,33.49
2017-06-05T09:05:35.931Z,33.14
2017-06-05T09:06:37.184Z,32.92
2017-06-05T09:07:38.441Z,33.13
2017-06-05T09:08:39.698Z,33.49
2017-06-05T09:09:40.959Z,33.86
2017-06-05T09:10:42.292Z,34.11
2017-06-05T09:11:43.559Z,33.89
2017-06-05T09:12:44.806Z,33.79
2017-06-05T09:13:46.083Z,32.67
2017-06-05T09:14:47.385Z,32.52
2017-06-05T09:15:48.640Z,32.17
2017-06-05T09:16:49.900Z,31.68
2017-06-05T09:17:51.160Z,32.2
2017-06-05T09:18:52.414Z,33.04
2017-06-05T09:19:53.673Z,33.61
2017-06-05T09:20:54.979Z,34.38
2017-06-05T09:21:56.219Z,34.77
2017-06-05T09:22:57.529Z,35.23
2017-06-05T09:23:58.775Z,35.51
2017-06-05T09:25:00.037Z,35.52
2017-06-05T09:26:01.342Z,35.15
2017-06-05T09:27:02.557Z,35.23
2017-06-05T09:28:03.869Z,34.79
2017-06-05T09:29:05.127Z,35.15
2017-06-05T09:30:06.383Z,35.64
2017-06-05T09:31:07.661Z,36.24
2017-06-05T09:32:09.240Z,36.72
2017-06-05T09:33:10.391Z,36.68
2017-06-05T09:34:11.695Z,36.72
2017-06-05T09:35:12.957Z,37.13
2017-06-05T09:36:14.248Z,37.55
2017-06-05T09:37:15.475Z,37.17
2017-06-05T09:38:16.730Z,36.99
2017-06-05T09:39:17.995Z,36.87
2017-06-05T09:40:19.270Z,37.71
2017-06-05T09:41:20.521Z,38.64
2017-06-05T09:42:21.866Z,39.47
2017-06-05T09:43:23.137Z,40.07
2017-06-05T09:44:24.402Z,40.57
2017-06-05T09:45:25.659Z,40.88
2017-06-05T09:46:26.946Z,41.33
2017-06-05T09:47:28.272Z,41.12
2017-06-05T09:48:29.676Z,41.52
2017-06-05T09:49:30.950Z,41.44
2017-06-05T09:50:32.204Z,41.4
2017-06-05T09:51:33.492Z,41.66
2017-06-05T09:52:34.765Z,42.01
2017-06-05T09:53:36.009Z,42.27
2017-06-05T09:54:37.400Z,42.44
2017-06-05T09:55:38.656Z,43.06
2017-06-05T09:56:39.926Z,43.51
2017-06-05T09:57:41.235Z,43.45
2017-06-05T09:58:42.471Z,43.41
2017-06-05T09:59:43.758Z,43.56
2017-06-05T10:00:45.018Z,43.23
2017-06-05T10:01:46.271Z,43
2017-06-05T10:02:47.531Z,43.32
2017-06-05T10:03:48.812Z,43.26
2017-06-05T10:04:50.155Z,42.87
2017-06-05T10:05:51.490Z,42.73
2017-06-05T10:06:52.750Z,42.83
2017-06-05T10:07:54.066Z,43.26
2017-06-05T10:08:55.304Z,43.52
2017-06-05T10:09:56.584Z,43.82
2017-06-05T10:10:57.858Z,43.87
2017-06-05T10:11:59.154Z,44.18
2017-06-05T10:13:00.378Z,44.14
2017-06-05T10:14:01.638Z,44.11
2017-06-05T10:15:02.898Z,44.02
2017-06-05T10:16:04.158Z,43.42
2017-06-05T10:17:05.442Z,42.84
2017-06-05T10:18:06.802Z,42.41
2017-06-05T10:19:08.076Z,41.22
2017-06-05T10:20:09.354Z,41.29
2017-06-05T10:21:10.621Z,41.15
2017-06-05T10:22:11.952Z,40.76
2017-06-05T10:23:13.245Z,40.18
2017-06-05T10:24:14.490Z,39.47
2017-06-05T10:25:15.811Z,38.45
2017-06-05T10:26:17.069Z,37.81
2017-06-05T10:27:18.345Z,37.41
2017-06-05T10:28:19.648Z,36.2
2017-06-05T10:29:20.937Z,36.15
2017-06-05T10:30:22.233Z,36.57
2017-06-05T10:31:23.469Z,36.65
2017-06-05T10:32:24.732Z,37.13
2017-06-05T10:33:26.102Z,36.72
2017-06-05T10:34:27.505Z,35.88
2017-06-05T10:35:28.809Z,35.45
2017-06-05T10:36:30.078Z,35.02
2017-06-05T10:37:31.324Z,34.94
2017-06-05T10:38:32.591Z,34.94
2017-06-05T10:39:33.936Z,34.72
2017-06-05T10:40:35.195Z,34.36
2017-06-05T10:41:36.500Z,34.13
2017-06-05T10:42:37.751Z,33.74
2017-06-05T10:43:39.015Z,33.37
2017-06-05T10:44:40.410Z,32.22
2017-06-05T10:45:41.638Z,31.27
2017-06-05T10:46:42.907Z,31.28
2017-06-05T10:47:44.182Z,31.13
2017-06-05T10:48:45.454Z,31.04
2017-06-05T10:49:46.737Z,30.72
2017-06-05T10:50:48.041Z,29.96
2017-06-05T10:51:49.346Z,29.52
2017-06-05T10:52:50.659Z,29.06
2017-06-05T10:53:51.902Z,28.6
2017-06-05T10:54:53.156Z,28.41
2017-06-05T10:55:54.410Z,27.98
2017-06-05T10:56:55.675Z,27.73
2017-06-05T10:57:56.927Z,27.74
2017-06-05T10:58:58.185Z,27.77
2017-06-05T10:59:59.489Z,27.73
2017-06-05T11:01:00.737Z,27.5
2017-06-05T11:02:02.002Z,27.43
2017-06-05T11:03:03.257Z,27.39
2017-06-05T11:04:04.543Z,27.26
2017-06-05T11:05:05.856Z,27.02
2017-06-05T11:06:07.118Z,26.89
2017-06-05T11:07:08.356Z,26.73
2017-06-05T11:08:09.625Z,26.54
2017-06-05T11:09:10.871Z,26.02
2017-06-05T11:10:12.117Z,25.49
2017-06-05T11:11:13.386Z,25.34
2017-06-05T11:12:14.653Z,25.24
2017-06-05T11:13:15.934Z,25.2
2017-06-05T11:14:17.187Z,25.27
2017-06-05T11:15:18.508Z,25.28
2017-06-05T11:16:19.808Z,25.35
2017-06-05T11:17:21.020Z,25.2
2017-06-05T11:18:22.271Z,25.19
2017-06-05T11:19:23.507Z,25.24
2017-06-05T11:20:24.747Z,25.05
2017-06-05T11:21:25.996Z,25.31
2017-06-05T11:22:27.252Z,25.43
2017-06-05T11:23:28.535Z,25.46
2017-06-05T11:24:29.800Z,25.35
2017-06-05T11:25:31.096Z,25.47
2017-06-05T11:26:32.353Z,25.46
2017-06-05T11:27:33.600Z,25.37
2017-06-05T11:28:34.860Z,25
2017-06-05T11:29:36.108Z,24.47
2017-06-05T11:30:37.365Z,23.95
2017-06-05T11:31:38.629Z,23.77
2017-06-05T11:32:39.883Z,23.72
2017-06-05T11:33:41.127Z,23.86
2017-06-05T11:34:42.471Z,23.87
2017-06-05T11:35:43.805Z,23.94
2017-06-05T11:36:45.060Z,23.97
2017-06-05T11:37:46.322Z,23.95
2017-06-05T11:38:47.604Z,24.07
2017-06-05T11:39:48.838Z,24.19
2017-06-05T11:40:50.103Z,24.37
2017-06-05T11:41:51.357Z,24.61
2017-06-05T11:42:52.628Z,24.8
2017-06-05T11:43:53.952Z,24.94
2017-06-05T11:44:55.184Z,24.98
2017-06-05T11:45:56.449Z,25.05
2017-06-05T11:46:57.771Z,25.2
2017-06-05T11:47:59.095Z,25.09
2017-06-05T11:49:00.301Z,24.88
2017-06-05T11:50:01.568Z,24.82
2017-06-05T11:51:02.820Z,25.12
2017-06-05T11:52:04.065Z,25.35
2017-06-05T11:53:05.318Z,25.5
2017-06-05T11:54:06.571Z,25.74
2017-06-05T11:55:07.884Z,25.99
2017-06-05T11:56:09.224Z,26.04
2017-06-05T11:57:10.478Z,26.09
2017-06-05T11:58:11.731Z,26.02
2017-06-05T11:59:12.978Z,26.08
2017-06-05T12:00:14.228Z,26.06
2017-06-05T12:01:15.672Z,26.2
2017-06-05T12:02:16.861Z,26.28
2017-06-05T12:03:18.131Z,26.35
2017-06-05T12:04:19.369Z,26.42
2017-06-05T12:05:20.735Z,26.42
2017-06-05T12:06:21.989Z,26.31
2017-06-05T12:07:23.230Z,26.05
2017-06-05T12:08:24.477Z,25.89
2017-06-05T12:09:25.724Z,25.64
2017-06-05T12:10:26.974Z,25.42
2017-06-05T12:11:28.319Z,25.52
2017-06-05T12:12:29.588Z,25.37
2017-06-05T12:13:30.818Z,25.24
2017-06-05T12:14:32.105Z,25.09
2017-06-05T12:15:33.343Z,25.35
2017-06-05T12:16:34.593Z,25.38
2017-06-05T12:17:35.861Z,25.56
2017-06-05T12:18:37.111Z,25.71
2017-06-05T12:19:38.397Z,25.64
2017-06-05T12:20:39.643Z,25.54
2017-06-05T12:21:40.878Z,25.5
2017-06-05T12:22:42.185Z,25.57
2017-06-05T12:23:43.446Z,25.52
2017-06-05T12:24:44.715Z,25.43
2017-06-05T12:25:45.979Z,25.38
2017-06-05T12:26:47.302Z,25.35
2017-06-05T12:27:48.491Z,25.22
2017-06-05T12:28:49.742Z,25.19
2017-06-05T12:29:50.987Z,25.16
2017-06-05T12:30:52.252Z,25.16
2017-06-05T12:31:53.505Z,25.24
2017-06-05T12:32:54.777Z,25.12
2017-06-05T12:33:56.049Z,25.01
2017-06-05T12:34:57.292Z,24.82
2017-06-05T12:35:58.543Z,24.82
2017-06-05T12:36:59.802Z,24.91
2017-06-05T12:38:01.105Z,25.06
2017-06-05T12:39:02.375Z,25.01
2017-06-05T12:40:03.609Z,24.83
2017-06-05T12:41:04.858Z,24.61
2017-06-05T12:42:06.114Z,24.39
2017-06-05T12:43:07.388Z,24.54
2017-06-05T12:44:08.615Z,24.63
2017-06-05T12:45:10.011Z,24.38
2017-06-05T12:46:11.285Z,24.31
2017-06-05T12:47:12.524Z,24.53
2017-06-05T12:48:13.860Z,24.71
2017-06-05T12:49:15.087Z,24.94
2017-06-05T12:50:16.346Z,25.06
2017-06-05T12:51:17.649Z,25.34
2017-06-05T12:52:18.982Z,25.47
2017-06-05T12:53:20.245Z,25.39
2017-06-05T12:54:21.466Z,25.16
2017-06-05T12:55:22.745Z,25.32
2017-06-05T12:56:24.056Z,25.25
2017-06-05T12:57:25.343Z,25.24
2017-06-05T12:58:26.610Z,25.15
2017-06-05T12:59:27.834Z,25.22
2017-06-05T13:00:29.080Z,25.15
2017-06-05T13:01:30.348Z,25.19
2017-06-05T13:02:31.625Z,25.38
2017-06-05T13:03:32.870Z,25.49
2017-06-05T13:04:34.134Z,25.61
2017-06-05T13:05:35.387Z,25.53
2017-06-05T13:06:36.770Z,25.54
2017-06-05T13:07:38.023Z,25.61
2017-06-05T13:08:39.280Z,25.59
2017-06-05T13:09:40.604Z,25.86
2017-06-05T13:10:41.888Z,25.84